Time;durP1;ratioP1;P1;durP2;ratioP2;P2;SDS_P1;SDS_P2;PMS_P1;PMS_P2;Temp;Humidity;BMP_temperature;BMP_pressure;BME280_temperature;BME280_humidity;BME280_pressure;Samples;Min_cycle;Max_cycle;Signal;HPM_P1;HPM_P2
2021/06/30 00:00:16;;;;;;;25.17;22.80;;;;;;;;;;2088836;28;20473;-75
2021/06/30 00:01:17;;;;;;;25.00;23.03;;;;;;;;;;2089022;28;20279;-76
2021/06/30 00:02:20;;;;;;;24.53;22.43;;;;;;;;;;2088984;28;20453;-76
2021/06/30 00:03:21;;;;;;;24.73;22.43;;;;;;;;;;2088940;28;20873;-75
2021/06/30 00:04:22;;;;;;;25.63;23.40;;;;;;;22.40;100.00;57707.53;2088877;28;20449;-75
2021/06/30 00:05:23;;;;;;;25.60;23.07;;;;;;;;;;2088461;28;20583;-76
2021/06/30 00:06:24;;;;;;;25.07;23.00;;;;;;;;;;2088794;28;20535;-76
2021/06/30 00:07:25;;;;;;;25.13;23.03;;;;;;;;;;2080765;28;20219;-75
2021/06/30 00:08:26;;;;;;;24.67;22.53;;;;;;;;;;2087900;28;20489;-76
2021/06/30 00:09:27;;;;;;;24.97;22.93;;;;;;;22.40;100.00;57711.59;2088656;28;20238;-75
2021/06/30 00:10:29;;;;;;;24.70;22.70;;;;;;;;;;2088853;28;20524;-75
2021/06/30 00:11:29;;;;;;;24.87;22.77;;;;;;;22.40;100.00;57711.59;2088668;28;20230;-75
2021/06/30 00:12:31;;;;;;;25.50;23.20;;;;;;;;;;2088794;28;20537;-76
2021/06/30 00:13:33;;;;;;;24.50;22.50;;;;;;;22.40;100.00;57707.53;2089635;28;20644;-75
2021/06/30 00:14:34;;;;;;;25.47;23.10;;;;;;;22.40;100.00;57711.59;2088810;28;20528;-75
2021/06/30 00:15:36;;;;;;;24.77;22.63;;;;;;;22.40;100.00;57707.53;2080612;28;20471;-75
2021/06/30 00:16:38;;;;;;;23.70;21.80;;;;;;;22.40;100.00;57707.53;2082313;28;20462;-76
2021/06/30 00:17:40;;;;;;;25.37;23.17;;;;;;;;;;2081219;28;20952;-76
2021/06/30 00:18:42;;;;;;;24.83;22.63;;;;;;;;;;2080502;28;21049;-76
2021/06/30 00:19:42;;;;;;;24.47;22.43;;;;;;;22.40;100.00;57707.53;2080577;28;20438;-76
2021/06/30 00:20:44;;;;;;;23.63;21.73;;;;;;;22.48;100.00;69762.25;2081372;28;20446;-76
2021/06/30 00:21:45;;;;;;;24.33;22.23;;;;;;;;;;2081272;28;20265;-75
2021/06/30 00:22:47;;;;;;;24.60;22.60;;;;;;;22.40;100.00;57707.53;2081246;28;20447;-76
2021/06/30 00:23:47;;;;;;;24.30;22.20;;;;;;;;;;2080460;28;20717;-75
2021/06/30 00:24:49;;;;;;;24.90;22.63;;;;;;;;;;2080771;28;20780;-75
2021/06/30 00:25:49;;;;;;;25.63;23.40;;;;;;;;;;2081237;28;20231;-74
2021/06/30 00:26:51;;;;;;;24.27;22.37;;;;;;;22.40;100.00;57768.34;2081228;28;20466;-75
2021/06/30 00:27:52;;;;;;;24.83;22.67;;;;;;;;;;2087006;28;20314;-77
2021/06/30 00:28:55;;;;;;;24.43;22.20;;;;;;;22.40;100.00;57711.59;2089309;28;20895;-75
2021/06/30 00:29:56;;;;;;;25.33;23.10;;;;;;;;;;2088466;28;20477;-75
2021/06/30 00:30:58;;;;;;;24.60;22.43;;;;;;;;;;2088716;28;20461;-75
2021/06/30 00:31:59;;;;;;;25.50;23.10;;;;;;;;;;2089539;28;20222;-75
2021/06/30 00:33:02;;;;;;;25.83;23.63;;;;;;;22.40;100.00;57711.59;2089435;28;20433;-74
2021/06/30 00:34:03;;;;;;;25.53;23.13;;;;;;;;;;2088646;28;20309;-75
2021/06/30 00:35:05;;;;;;;24.77;22.50;;;;;;;;;;2088797;28;21011;-75
2021/06/30 00:36:06;;;;;;;24.40;22.33;;;;;;;;;;2089185;28;20445;-75
2021/06/30 00:37:07;;;;;;;25.70;23.70;;;;;;;;;;2089019;28;20963;-77
2021/06/30 00:38:08;;;;;;;24.47;22.37;;;;;;;;;;2089395;28;20218;-75
2021/06/30 00:39:10;;;;;;;26.40;23.87;;;;;;;22.40;100.00;57713.63;2089221;28;20473;-76
2021/06/30 00:40:11;;;;;;;26.23;23.57;;;;;;;;;;2089415;28;20685;-75
2021/06/30 00:41:12;;;;;;;26.63;24.23;;;;;;;;;;2088572;28;20464;-75
2021/06/30 00:42:13;;;;;;;26.93;24.43;;;;;;;;;;2080340;28;20462;-75
2021/06/30 00:43:14;;;;;;;27.50;25.00;;;;;;;22.40;100.00;57707.53;2088565;28;20438;-76
2021/06/30 00:44:15;;;;;;;27.33;25.00;;;;;;;;;;2089285;28;20307;-75
2021/06/30 00:45:17;;;;;;;26.97;24.53;;;;;;;;;;2089185;28;20457;-75
2021/06/30 00:46:24;;;;;;;26.63;24.30;;;;;;;22.40;100.00;57707.53;2089161;28;20557;-76
2021/06/30 00:47:26;;;;;;;27.47;25.07;;;;;;;22.40;100.00;124792.00;2088098;28;20461;-77
2021/06/30 00:48:28;;;;;;;25.13;23.03;;;;;;;22.40;100.00;57707.53;2080311;28;20581;-76
2021/06/30 00:49:30;;;;;;;25.63;23.27;;;;;;;;;;2088303;28;20540;-75
2021/06/30 00:50:30;;;;;;;26.53;24.13;;;;;;;22.40;100.00;57711.59;2089167;28;20830;-76
2021/06/30 00:51:32;;;;;;;26.33;23.97;;;;;;;22.40;100.00;57713.63;2088328;28;20508;-76
2021/06/30 00:52:33;;;;;;;26.33;23.97;;;;;;;;;;2080207;28;20223;-76
2021/06/30 00:53:34;;;;;;;26.93;24.53;;;;;;;;;;2080335;28;21003;-76
2021/06/30 00:54:35;;;;;;;26.00;23.90;;;;;;;;;;2088603;28;20638;-77
2021/06/30 00:55:38;;;;;;;26.40;24.30;;;;;;;;;;2088515;28;20824;-76
2021/06/30 00:56:38;;;;;;;26.87;24.63;;;;;;;22.40;100.00;57707.53;2081472;28;20774;-76
2021/06/30 00:57:40;;;;;;;26.50;24.23;;;;;;;;;;2080180;28;20834;-76
2021/06/30 00:58:41;;;;;;;27.13;24.43;;;;;;;22.40;100.00;57707.53;2080941;28;20613;-75
2021/06/30 00:59:42;;;;;;;27.70;25.00;;;;;;;;;;2080850;28;20462;-76
2021/06/30 01:00:43;;;;;;;25.30;23.03;;;;;;;;;;2080245;28;20227;-76
2021/06/30 01:01:45;;;;;;;27.27;25.00;;;;;;;;;;2071975;28;20452;-76
2021/06/30 01:02:45;;;;;;;26.60;24.23;;;;;;;;;;2080282;28;20677;-76
2021/06/30 01:03:48;;;;;;;26.63;24.30;;;;;;;;;;2080087;28;20876;-76
2021/06/30 01:04:49;;;;;;;26.77;24.23;;;;;;;22.40;100.00;124792.00;2080183;28;20254;-76
2021/06/30 01:05:50;;;;;;;26.83;24.53;;;;;;;;;;2080632;28;20553;-76
2021/06/30 01:06:51;;;;;;;27.10;24.27;;;;;;;;;;2080259;28;20724;-76
2021/06/30 01:07:52;;;;;;;26.00;24.00;;;;;;;22.40;100.00;124792.00;2085957;28;20873;-76
2021/06/30 01:08:53;;;;;;;29.87;27.20;;;;;;;;;;2088258;28;20230;-76
2021/06/30 01:09:54;;;;;;;36.03;32.80;;;;;;;;;;2088477;28;20979;-77
2021/06/30 01:10:55;;;;;;;36.97;32.97;;;;;;;;;;2088161;28;20226;-75
2021/06/30 01:11:58;;;;;;;32.63;29.60;;;;;;;;;;2088398;28;20488;-76
2021/06/30 01:12:58;;;;;;;34.17;30.80;;;;;;;;;;2088269;28;20233;-75
2021/06/30 01:14:01;;;;;;;34.40;31.03;;;;;;;;;;2080152;28;20453;-75
2021/06/30 01:15:02;;;;;;;33.73;30.57;;;;;;;;;;2088849;28;20222;-76
2021/06/30 01:16:04;;;;;;;33.43;30.20;;;;;;;22.40;0.00;57713.63;2089899;28;20452;-77
2021/06/30 01:17:06;;;;;;;32.50;29.50;;;;;;;;;;2089938;28;20465;-76
2021/06/30 01:18:08;;;;;;;33.23;30.33;;;;;;;;;;2088280;28;20446;-76
2021/06/30 01:19:10;;;;;;;32.93;29.97;;;;;;;;;;2088791;28;20446;-76
2021/06/30 01:20:11;;;;;;;30.97;28.07;;;;;;;;;;2088841;28;20809;-76
2021/06/30 01:21:12;;;;;;;30.67;27.77;;;;;;;;;;2088681;28;20524;-77
2021/06/30 01:22:14;;;;;;;29.70;27.10;;;;;;;;;;2089365;28;20473;-76
2021/06/30 01:23:16;;;;;;;29.53;26.93;;;;;;;;;;2088621;28;20301;-75
2021/06/30 01:24:17;;;;;;;31.27;28.13;;;;;;;;;;2088423;28;20457;-76
2021/06/30 01:25:18;;;;;;;28.37;25.50;;;;;;;;;;2088324;28;20487;-76
2021/06/30 01:26:20;;;;;;;28.47;25.77;;;;;;;22.40;100.00;124691.28;2088534;28;20492;-76
2021/06/30 01:27:20;;;;;;;28.33;25.73;;;;;;;;;;2089109;28;20222;-76
2021/06/30 01:28:22;;;;;;;27.93;24.10;;;;;;;22.40;100.00;57713.63;2088358;28;20551;-76
2021/06/30 01:29:23;;;;;;;27.27;24.83;;;;;;;;;;2079779;28;20230;-76
2021/06/30 01:30:24;;;;;;;26.37;23.97;;;;;;;;;;2088223;28;21021;-77
2021/06/30 01:31:25;;;;;;;26.40;23.83;;;;;;;22.40;100.00;57713.63;2088831;28;20749;-76
2021/06/30 01:32:26;;;;;;;24.90;22.57;;;;;;;;;;2088493;28;20963;-76
2021/06/30 01:33:27;;;;;;;23.70;21.53;;;;;;;;;;2088329;28;20304;-76
2021/06/30 01:34:29;;;;;;;25.87;21.23;;;;;;;;;;2088861;28;20476;-76
2021/06/30 01:35:29;;;;;;;24.77;22.47;;;;;;;;;;2089074;28;20226;-76
2021/06/30 01:36:42;;;;;;;25.37;21.73;;;;;;;;;;2089195;28;20480;-76
2021/06/30 01:37:44;;;;;;;23.70;21.43;;;;;;;;;;2088656;28;20276;-76
2021/06/30 01:38:46;;;;;;;24.47;22.20;;;;;;;;;;2088227;28;20446;-75
2021/06/30 01:39:47;;;;;;;24.30;21.97;;;;;;;;;;2088068;28;20468;-76
2021/06/30 01:40:49;;;;;;;23.83;21.27;;;;;;;;;;2088046;28;20462;-76
2021/06/30 01:41:50;;;;;;;23.07;21.00;;;;;;;22.40;100.00;57713.63;2088268;28;20226;-75
2021/06/30 01:42:54;;;;;;;27.90;20.90;;;;;;;22.40;100.00;57713.63;2088955;28;20459;-76
2021/06/30 01:43:54;;;;;;;20.47;18.90;;;;;;;22.40;100.00;57713.63;2087675;28;20262;-75
2021/06/30 01:44:56;;;;;;;20.23;18.40;;;;;;;;;;2079883;28;20466;-76
2021/06/30 01:45:58;;;;;;;21.03;19.23;;;;;;;;;;2079869;28;20242;-75
2021/06/30 01:46:59;;;;;;;21.17;19.30;;;;;;;;;;2080166;28;20561;-75
2021/06/30 01:48:00;;;;;;;25.13;19.50;;;;;;;22.40;100.00;57713.63;2080115;28;20963;-75
2021/06/30 01:49:02;;;;;;;20.47;18.97;;;;;;;22.40;100.00;57711.59;2088113;28;20868;-76
2021/06/30 01:50:04;;;;;;;21.97;18.73;;;;;;;22.40;100.00;57707.53;2088112;28;20347;-76
2021/06/30 01:51:06;;;;;;;21.27;19.47;;;;;;;;;;2088942;28;20507;-75
2021/06/30 01:52:07;;;;;;;20.63;18.63;;;;;;;;;;2087862;28;20464;-76
2021/06/30 01:53:08;;;;;;;20.17;18.47;;;;;;;22.40;100.00;57713.63;2088180;28;20481;-76
2021/06/30 01:54:12;;;;;;;20.43;18.63;;;;;;;22.40;100.00;57711.59;2088794;28;20219;-75
2021/06/30 01:55:14;;;;;;;20.87;18.83;;;;;;;;;;2088816;28;20978;-76
2021/06/30 01:56:20;;;;;;;19.47;17.93;;;;;;;;;;2088884;28;20446;-75
2021/06/30 01:57:22;;;;;;;20.27;18.37;;;;;;;;;;2088170;28;20536;-76
2021/06/30 01:58:23;;;;;;;20.10;18.50;;;;;;;;;;2087732;28;20508;-76
2021/06/30 01:59:25;;;;;;;19.70;18.30;;;;;;;18.47;nan;98350.63;2088913;28;20445;-75
2021/06/30 02:00:25;;;;;;;19.53;17.90;;;;;;;22.40;100.00;57713.63;2088738;28;20291;-76
2021/06/30 02:01:27;;;;;;;19.47;17.70;;;;;;;22.40;100.00;57707.53;2087925;28;20542;-75
2021/06/30 02:02:28;;;;;;;20.13;18.33;;;;;;;;;;2079747;28;20310;-76
2021/06/30 02:03:30;;;;;;;20.77;18.40;;;;;;;;;;2088108;28;20461;-75
2021/06/30 02:04:31;;;;;;;20.20;18.43;;;;;;;;;;2088128;28;20936;-76
2021/06/30 02:05:33;;;;;;;20.57;18.83;;;;;;;;;;2088861;28;20516;-76
2021/06/30 02:06:36;;;;;;;19.90;18.13;;;;;;;;;;2088051;28;20516;-75
2021/06/30 02:07:37;;;;;;;19.40;17.97;;;;;;;;;;2088088;28;20981;-75
2021/06/30 02:08:38;;;;;;;20.43;18.70;;;;;;;;;;2087292;28;20523;-76
2021/06/30 02:09:41;;;;;;;19.20;17.90;;;;;;;;;;2088066;28;20464;-76
2021/06/30 02:10:41;;;;;;;20.33;18.67;;;;;;;;;;2088563;28;22507;-75
2021/06/30 02:11:43;;;;;;;20.13;18.40;;;;;;;;;;2088837;28;20975;-76
2021/06/30 02:12:44;;;;;;;21.80;19.93;;;;;;;22.40;100.00;57768.34;2087937;28;20218;-76
2021/06/30 02:13:45;;;;;;;21.07;18.93;;;;;;;;;;2087939;28;20523;-76
2021/06/30 02:14:46;;;;;;;20.40;18.50;;;;;;;;;;2088171;28;20480;-76
2021/06/30 02:15:48;;;;;;;20.70;18.80;;;;;;;;;;2088057;28;20441;-76
2021/06/30 02:16:48;;;;;;;19.20;17.80;;;;;;;;;;2088383;28;20298;-76
2021/06/30 02:17:50;;;;;;;19.17;17.57;;;;;;;;;;2088028;28;20461;-76
2021/06/30 02:18:50;;;;;;;19.50;17.50;;;;;;;22.40;100.00;57711.59;2087876;28;20226;-75
2021/06/30 02:19:52;;;;;;;18.10;16.70;;;;;;;;;;2088641;28;20515;-75
2021/06/30 02:20:52;;;;;;;18.90;17.10;;;;;;;;;;2087389;28;20253;-75
2021/06/30 02:21:54;;;;;;;18.80;16.93;;;;;;;22.40;100.00;57713.63;2079587;28;20482;-76
2021/06/30 02:22:56;;;;;;;19.53;17.93;;;;;;;22.40;100.00;57713.63;2079605;28;20640;-76
2021/06/30 02:23:58;;;;;;;18.77;17.37;;;;;;;22.48;100.00;116347.69;2079670;28;20569;-76
2021/06/30 02:25:00;;;;;;;19.20;17.27;;;;;;;;;;2087925;28;20450;-76
2021/06/30 02:26:02;;;;;;;18.97;17.40;;;;;;;22.40;100.00;124691.28;2087924;28;20460;-76
2021/06/30 02:27:03;;;;;;;18.27;16.97;;;;;;;22.40;100.00;57713.63;2079747;28;20461;-76
2021/06/30 02:28:05;;;;;;;19.10;17.30;;;;;;;;;;2087949;28;20893;-76
2021/06/30 02:29:05;;;;;;;19.60;17.60;;;;;;;;;;2088868;28;20940;-76
2021/06/30 02:30:08;;;;;;;25.10;18.13;;;;;;;;;;2088572;28;20862;-75
2021/06/30 02:31:08;;;;;;;18.87;17.43;;;;;;;;;;2088036;28;20227;-76
2021/06/30 02:32:10;;;;;;;18.23;16.83;;;;;;;;;;2087343;28;20453;-76
2021/06/30 02:33:10;;;;;;;18.63;17.13;;;;;;;;;;2079582;28;20223;-76
2021/06/30 02:34:12;;;;;;;18.30;16.90;;;;;;;;;;2087897;28;20998;-75
2021/06/30 02:35:13;;;;;;;18.87;16.87;;;;;;;;;;2088555;28;20215;-76
2021/06/30 02:36:15;;;;;;;19.73;16.90;;;;;;;;;;2087759;28;20450;-76
2021/06/30 02:37:15;;;;;;;18.83;17.43;;;;;;;;;;2087909;28;20519;-75
2021/06/30 02:38:18;;;;;;;19.97;17.90;;;;;;;22.40;100.00;124757.34;2087871;28;20483;-76
2021/06/30 02:39:19;;;;;;;18.93;17.53;;;;;;;;;;2087872;28;20587;-75
2021/06/30 02:40:23;;;;;;;20.83;17.57;;;;;;;22.40;100.00;57711.59;2087829;28;20552;-76
2021/06/30 02:41:23;;;;;;;19.43;17.87;;;;;;;;;;2079456;28;20215;-76
2021/06/30 02:42:25;;;;;;;19.23;17.90;;;;;;;22.40;100.00;57713.63;2079477;28;20474;-76
2021/06/30 02:43:25;;;;;;;20.23;18.23;;;;;;;;;;2087819;28;20226;-75
2021/06/30 02:44:27;;;;;;;19.20;17.40;;;;;;;22.40;100.00;57711.59;2087624;28;20460;-75
2021/06/30 02:45:28;;;;;;;20.33;18.63;;;;;;;22.40;100.00;57711.59;2079608;28;20227;-76
2021/06/30 02:46:29;;;;;;;22.83;19.90;;;;;;;;;;2087763;28;20445;-76
2021/06/30 02:47:30;;;;;;;20.87;18.87;;;;;;;22.40;0.00;57713.63;2079605;28;20257;-76
2021/06/30 02:48:32;;;;;;;22.27;19.37;;;;;;;22.40;0.00;57711.59;2079422;28;20477;-76
2021/06/30 02:49:32;;;;;;;21.80;19.70;;;;;;;;;;2087895;28;20726;-76
2021/06/30 02:50:34;;;;;;;22.57;20.13;;;;;;;;;;2087742;28;20893;-76
2021/06/30 02:51:36;;;;;;;22.87;20.53;;;;;;;22.40;100.00;57711.59;2087858;28;20676;-75
2021/06/30 02:52:38;;;;;;;22.10;19.80;;;;;;;;;;2088480;28;20519;-75
2021/06/30 02:53:39;;;;;;;22.23;19.87;;;;;;;22.40;100.00;57768.34;2087314;28;20465;-76
2021/06/30 02:54:40;;;;;;;20.67;18.67;;;;;;;;;;2079357;28;20469;-75
2021/06/30 02:55:42;;;;;;;21.10;19.13;;;;;;;;;;2087663;28;20230;-76
2021/06/30 02:56:44;;;;;;;20.77;18.60;;;;;;;22.40;100.00;57699.41;2088416;28;20441;-76
2021/06/30 02:57:45;;;;;;;20.80;18.97;;;;;;;;;;2087683;28;20457;-76
2021/06/30 02:58:46;;;;;;;23.97;18.83;;;;;;;;;;2087655;28;20465;-76
2021/06/30 02:59:47;;;;;;;19.90;18.10;;;;;;;;;;2087944;28;20230;-75
2021/06/30 03:00:48;;;;;;;19.63;17.73;;;;;;;;;;2087991;28;20463;-76
2021/06/30 03:01:49;;;;;;;18.90;17.20;;;;;;;;;;2087839;28;20230;-76
2021/06/30 03:02:51;;;;;;;19.30;17.63;;;;;;;;;;2087728;28;20456;-75
2021/06/30 03:03:51;;;;;;;20.30;18.43;;;;;;;;;;2088073;28;20222;-76
2021/06/30 03:04:53;;;;;;;18.70;17.23;;;;;;;;;;2088464;28;20456;-77
2021/06/30 03:05:54;;;;;;;19.03;17.50;;;;;;;22.40;100.00;57711.59;2087316;28;20219;-76
2021/06/30 03:06:56;;;;;;;19.00;17.40;;;;;;;;;;2087594;28;21033;-76
2021/06/30 03:07:56;;;;;;;19.07;17.50;;;;;;;;;;2087756;28;21591;-77
2021/06/30 03:08:58;;;;;;;19.43;17.77;;;;;;;;;;2088444;28;20986;-76
2021/06/30 03:09:58;;;;;;;18.77;17.57;;;;;;;;;;2087742;28;20222;-75
2021/06/30 03:11:01;;;;;;;18.97;17.37;;;;;;;22.40;100.00;57707.53;2087631;28;20511;-76
2021/06/30 03:12:04;;;;;;;18.70;17.17;;;;;;;22.40;100.00;124656.63;2087055;28;20233;-77
2021/06/30 03:13:05;;;;;;;18.73;17.30;;;;;;;;;;2079460;28;20454;-76
2021/06/30 03:14:06;;;;;;;19.23;17.70;;;;;;;;;;2087690;28;20979;-75
2021/06/30 03:15:09;;;;;;;18.40;17.20;;;;;;;;;;2087122;28;20898;-77
2021/06/30 03:16:10;;;;;;;22.83;17.63;;;;;;;;;;2079741;28;20231;-75
2021/06/30 03:17:11;;;;;;;18.47;17.20;;;;;;;;;;2087664;28;20998;-88
2021/06/30 03:18:12;;;;;;;18.37;16.87;;;;;;;;;;2087646;28;20234;-79
2021/06/30 03:19:13;;;;;;;18.60;17.17;;;;;;;;;;2087708;28;20466;-78
2021/06/30 03:20:15;;;;;;;18.73;17.07;;;;;;;;;;2088393;28;20237;-78
2021/06/30 03:21:17;;;;;;;18.23;17.03;;;;;;;;;;2087459;28;20438;-78
2021/06/30 03:22:17;;;;;;;19.00;17.07;;;;;;;;;;2087559;28;20452;-78
2021/06/30 03:23:19;;;;;;;18.20;17.00;;;;;;;;;;2087744;28;21018;-77
2021/06/30 03:24:19;;;;;;;18.70;17.30;;;;;;;;;;2087776;28;20273;-78
2021/06/30 03:25:21;;;;;;;18.77;17.10;;;;;;;;;;2088374;28;20994;-78
2021/06/30 03:26:23;;;;;;;18.70;17.17;;;;;;;;;;2080746;28;20234;-78
2021/06/30 03:27:24;;;;;;;19.53;17.60;;;;;;;;;;2079413;28;20442;-80
2021/06/30 03:28:25;;;;;;;19.13;17.53;;;;;;;;;;2079234;28;20504;-79
2021/06/30 03:29:26;;;;;;;18.10;16.80;;;;;;;;;;2079443;28;20560;-78
2021/06/30 03:30:30;;;;;;;18.70;17.47;;;;;;;;;;2079132;28;20231;-78
2021/06/30 03:31:32;;;;;;;18.87;17.43;;;;;;;;;;2079549;28;20791;-78
2021/06/30 03:32:33;;;;;;;18.90;17.27;;;;;;;22.40;100.00;57650.69;2079370;28;20528;-78
2021/06/30 03:33:36;;;;;;;19.03;17.40;;;;;;;22.40;100.00;124524.53;2079130;28;20493;-79
2021/06/30 03:34:37;;;;;;;18.80;17.30;;;;;;;22.40;100.00;124260.38;2081099;28;20310;-78
2021/06/30 03:35:38;;;;;;;18.47;16.63;;;;;;;;;;2080042;28;20463;-78
2021/06/30 03:36:40;;;;;;;18.43;17.03;;;;;;;;;;2080026;28;20281;-78
2021/06/30 03:37:41;;;;;;;27.07;17.57;;;;;;;22.40;100.00;124524.53;2080006;28;20462;-78
2021/06/30 03:38:43;;;;;;;18.80;17.10;;;;;;;;;;2080033;28;20451;-79
2021/06/30 03:39:43;;;;;;;18.77;17.20;;;;;;;;;;2080133;28;20474;-78
2021/06/30 03:40:45;;;;;;;19.40;17.90;;;;;;;;;;2079197;28;20490;-78
2021/06/30 03:41:47;;;;;;;18.53;16.90;;;;;;;;;;2079481;28;20678;-78
2021/06/30 03:42:49;;;;;;;18.83;17.43;;;;;;;22.40;100.00;57699.41;2079407;28;20553;-78
2021/06/30 03:43:50;;;;;;;22.67;17.60;;;;;;;;;;2071445;28;20533;-78
2021/06/30 03:44:52;;;;;;;18.90;17.30;;;;;;;;;;2080932;28;20466;-78
2021/06/30 03:45:53;;;;;;;19.10;17.60;;;;;;;;;;2086829;28;20761;-78
2021/06/30 03:46:54;;;;;;;18.80;17.20;;;;;;;;;;2080953;28;20862;-78
2021/06/30 03:47:55;;;;;;;19.37;17.60;;;;;;;22.40;100.00;124524.53;2089143;28;20238;-79
2021/06/30 03:48:56;;;;;;;18.00;16.80;;;;;;;;;;2089396;28;20971;-78
2021/06/30 03:49:58;;;;;;;17.87;16.63;;;;;;;;;;2088837;28;20226;-78
2021/06/30 03:50:59;;;;;;;18.40;16.93;;;;;;;;;;2080830;28;20446;-78
2021/06/30 03:52:00;;;;;;;19.30;17.70;;;;;;;;;;2088751;28;20927;-78
2021/06/30 03:53:01;;;;;;;19.97;18.50;;;;;;;;;;2088971;28;20800;-78
2021/06/30 03:54:02;;;;;;;20.20;18.60;;;;;;;;;;2080778;28;20226;-78
2021/06/30 03:55:05;;;;;;;20.37;18.80;;;;;;;22.40;100.00;57683.19;2080743;28;20995;-78
2021/06/30 03:56:06;;;;;;;19.90;18.40;;;;;;;;;;2080804;28;20312;-78
2021/06/30 03:57:09;;;;;;;18.20;16.77;;;;;;;;;;2074055;28;20451;-78
2021/06/30 03:58:10;;;;;;;19.00;17.27;;;;;;;;;;2072635;28;20223;-78
2021/06/30 03:59:11;;;;;;;18.83;17.23;;;;;;;;;;2080570;28;20478;-78
2021/06/30 04:00:12;;;;;;;18.90;17.00;;;;;;;;;;2080670;28;20231;-78
2021/06/30 04:01:17;;;;;;;20.80;19.00;;;;;;;;;;2072734;28;20465;-78
2021/06/30 04:02:17;;;;;;;19.30;17.47;;;;;;;;;;2072598;28;20898;-78
2021/06/30 04:03:19;;;;;;;18.73;16.93;;;;;;;;;;2080759;28;20457;-78
2021/06/30 04:04:19;;;;;;;18.40;17.10;;;;;;;;;;2080663;28;20215;-78
2021/06/30 04:05:21;;;;;;;18.70;17.00;;;;;;;;;;2080768;28;20505;-78
2021/06/30 04:06:22;;;;;;;18.80;17.30;;;;;;;;;;2082308;28;20231;-80
2021/06/30 04:07:24;;;;;;;18.33;16.93;;;;;;;;;;2080681;28;20457;-78
2021/06/30 04:08:24;;;;;;;18.67;17.07;;;;;;;;;;2080763;28;20937;-79
2021/06/30 04:09:26;;;;;;;18.37;16.97;;;;;;;;;;2081431;28;20870;-78
2021/06/30 04:10:26;;;;;;;18.47;16.97;;;;;;;;;;2081238;28;20223;-78
2021/06/30 04:11:28;;;;;;;20.37;17.23;;;;;;;;;;2080461;28;20504;-78
2021/06/30 04:12:30;;;;;;;19.83;18.30;;;;;;;;;;2080654;28;20281;-75
2021/06/30 04:13:31;;;;;;;21.10;19.57;;;;;;;22.40;100.00;124656.63;2081457;28;20443;-76
2021/06/30 04:14:32;;;;;;;20.53;18.97;;;;;;;;;;2081468;28;20959;-76
2021/06/30 04:15:34;;;;;;;20.63;18.93;;;;;;;22.40;100.00;124524.53;2081375;28;20875;-76
2021/06/30 04:16:34;;;;;;;20.37;18.73;;;;;;;;;;2086442;28;20256;-76
2021/06/30 04:17:36;;;;;;;20.63;18.93;;;;;;;22.40;100.00;124656.63;2088768;28;20515;-76
2021/06/30 04:18:37;;;;;;;20.27;18.60;;;;;;;;;;2088439;28;20268;-77
2021/06/30 04:19:39;;;;;;;20.43;18.67;;;;;;;-144.27;100.00;69764.59;2088856;28;20542;-77
2021/06/30 04:20:42;;;;;;;19.83;18.43;;;;;;;;;;2089518;28;20219;-77
2021/06/30 04:21:44;;;;;;;19.83;18.33;;;;;;;;;;2089727;28;20524;-76
2021/06/30 04:22:44;;;;;;;19.97;18.33;;;;;;;;;;2088781;28;20453;-76
2021/06/30 04:23:46;;;;;;;20.03;18.23;;;;;;;;;;2080518;28;20523;-76
2021/06/30 04:24:46;;;;;;;18.93;17.53;;;;;;;;;;2080481;28;20646;-76
2021/06/30 04:25:48;;;;;;;20.00;18.30;;;;;;;;;;2088851;28;20479;-77
2021/06/30 04:26:48;;;;;;;19.73;17.93;;;;;;;;;;2089529;28;20624;-76
2021/06/30 04:27:51;;;;;;;20.10;18.53;;;;;;;;;;2088809;28;20526;-75
2021/06/30 04:28:52;;;;;;;19.63;17.93;;;;;;;;;;2088549;28;20280;-77
2021/06/30 04:29:53;;;;;;;20.10;18.43;;;;;;;;;;2089499;28;20461;-77
2021/06/30 04:30:54;;;;;;;20.03;18.37;;;;;;;;;;2088538;28;20610;-76
2021/06/30 04:31:56;;;;;;;19.87;18.13;;;;;;;;;;2088617;28;20457;-76
2021/06/30 04:32:56;;;;;;;20.43;18.53;;;;;;;;;;2088689;28;20231;-77
2021/06/30 04:33:58;;;;;;;20.87;18.97;;;;;;;;;;2089274;28;20920;-76
2021/06/30 04:34:58;;;;;;;20.90;18.73;;;;;;;;;;2089594;28;20219;-76
2021/06/30 04:36:00;;;;;;;20.90;18.87;;;;;;;;;;2088732;28;20516;-76
2021/06/30 04:37:00;;;;;;;20.00;18.37;;;;;;;;;;2088689;28;20582;-76
2021/06/30 04:38:02;;;;;;;20.30;18.60;;;;;;;;;;2088569;28;20437;-77
2021/06/30 04:39:03;;;;;;;20.33;18.60;;;;;;;;;;2088736;28;20219;-77
2021/06/30 04:40:05;;;;;;;20.87;19.23;;;;;;;;;;2089317;28;20952;-76
2021/06/30 04:41:06;;;;;;;20.83;18.83;;;;;;;22.40;100.00;57707.53;2088562;28;20218;-76
2021/06/30 04:42:07;;;;;;;20.73;18.97;;;;;;;;;;2088537;28;20507;-76
2021/06/30 04:43:09;;;;;;;19.87;18.23;;;;;;;;;;2089060;28;20305;-78
2021/06/30 04:44:12;;;;;;;20.30;18.57;;;;;;;;;;2088511;28;20441;-77
2021/06/30 04:45:12;;;;;;;20.40;18.60;;;;;;;;;;2088592;28;21055;-76
2021/06/30 04:46:14;;;;;;;20.13;18.37;;;;;;;;;;2088494;28;20857;-77
2021/06/30 04:47:14;;;;;;;20.63;18.80;;;;;;;;;;2080287;28;20219;-77
2021/06/30 04:48:16;;;;;;;20.27;18.53;;;;;;;;;;2088657;28;20484;-77
2021/06/30 04:49:17;;;;;;;20.50;18.40;;;;;;;;;;2089238;28;20222;-76
2021/06/30 04:50:18;;;;;;;20.77;18.63;;;;;;;;;;2088435;28;21009;-76
2021/06/30 04:51:21;;;;;;;20.33;18.37;;;;;;;;;;2088565;28;20584;-77
2021/06/30 04:52:22;;;;;;;20.23;18.63;;;;;;;22.40;100.00;124656.63;2088147;28;20454;-77
2021/06/30 04:53:23;;;;;;;19.50;17.70;;;;;;;;;;2088303;28;20457;-76
2021/06/30 04:54:24;;;;;;;19.80;17.97;;;;;;;;;;2088018;28;20449;-76
2021/06/30 04:55:25;;;;;;;22.07;18.27;;;;;;;;;;2080229;28;20234;-76
2021/06/30 04:56:39;;;;;;;18.97;17.53;;;;;;;;;;2088575;28;20492;-76
2021/06/30 04:57:39;;;;;;;19.23;17.30;;;;;;;;;;2087991;28;20227;-76
2021/06/30 04:58:42;;;;;;;18.87;17.17;;;;;;;;;;2088350;28;20461;-77
2021/06/30 04:59:42;;;;;;;19.47;17.50;;;;;;;;;;2089088;28;20227;-76
2021/06/30 05:00:44;;;;;;;18.93;17.43;;;;;;;;;;2089269;28;20462;-76
2021/06/30 05:01:44;;;;;;;18.03;16.80;;;;;;;;;;2088285;28;20276;-77
2021/06/30 05:02:46;;;;;;;19.13;17.60;;;;;;;22.40;100.00;124656.63;2088590;28;20471;-78
2021/06/30 05:03:47;;;;;;;19.27;17.63;;;;;;;;;;2088458;28;20230;-78
2021/06/30 05:04:48;;;;;;;18.87;17.33;;;;;;;;;;2080211;28;20506;-78
2021/06/30 05:05:49;;;;;;;19.53;17.83;;;;;;;22.40;100.00;124656.63;2088522;28;20687;-77
2021/06/30 05:06:51;;;;;;;21.50;18.27;;;;;;;;;;2089288;28;20882;-77
2021/06/30 05:07:51;;;;;;;19.90;17.87;;;;;;;;;;2089165;28;20227;-82
2021/06/30 05:08:53;;;;;;;19.43;17.67;;;;;;;;;;2088783;28;20535;-79
2021/06/30 05:09:53;;;;;;;19.07;17.47;;;;;;;;;;2080074;28;20231;-74
2021/06/30 05:10:55;;;;;;;19.43;17.73;;;;;;;;;;2079919;28;20455;-76
2021/06/30 05:11:55;;;;;;;19.10;17.53;;;;;;;;;;2080044;28;20239;-74
2021/06/30 05:12:57;;;;;;;19.70;18.03;;;;;;;;;;2088470;28;20457;-76
2021/06/30 05:13:59;;;;;;;19.00;17.40;;;;;;;;;;2089034;28;20223;-77
2021/06/30 05:15:00;;;;;;;19.43;17.83;;;;;;;;;;2089162;28;20453;-77
2021/06/30 05:16:01;;;;;;;19.40;17.70;;;;;;;;;;2089136;28;20448;-76
2021/06/30 05:17:02;;;;;;;19.60;17.90;;;;;;;;;;2089001;28;20484;-75
2021/06/30 05:18:03;;;;;;;20.40;18.47;;;;;;;;;;2088192;28;20218;-78
2021/06/30 05:19:04;;;;;;;19.80;17.80;;;;;;;;;;2080102;28;20522;-76
2021/06/30 05:20:06;;;;;;;19.93;18.30;;;;;;;;;;2088417;28;20218;-78
2021/06/30 05:21:07;;;;;;;19.03;17.53;;;;;;;;;;2088532;28;20492;-81
2021/06/30 05:22:08;;;;;;;19.23;17.50;;;;;;;;;;2088234;28;20461;-81
2021/06/30 05:23:09;;;;;;;19.20;17.70;;;;;;;;;;2087944;28;20967;-80
2021/06/30 05:24:10;;;;;;;20.00;18.27;;;;;;;;;;2088890;28;20227;-80
2021/06/30 05:25:12;;;;;;;19.37;17.70;;;;;;;;;;2088268;28;20465;-80
2021/06/30 05:26:12;;;;;;;18.63;17.23;;;;;;;;;;2079879;28;20584;-80
2021/06/30 05:27:14;;;;;;;19.07;17.30;;;;;;;;;;2079926;28;20493;-76
2021/06/30 05:28:14;;;;;;;19.40;17.90;;;;;;;;;;2088119;28;20631;-81
2021/06/30 05:29:17;;;;;;;20.03;18.23;;;;;;;;;;2087959;28;20536;-80
2021/06/30 05:30:18;;;;;;;20.23;18.33;;;;;;;;;;2080117;28;20222;-81
2021/06/30 05:31:20;;;;;;;19.57;17.93;;;;;;;;;;2079866;28;20493;-82
2021/06/30 05:32:20;;;;;;;19.70;17.73;;;;;;;;;;2088136;28;20222;-81
2021/06/30 05:33:22;;;;;;;19.27;17.70;;;;;;;;;;2087995;28;20442;-81
2021/06/30 05:34:22;;;;;;;21.37;19.30;;;;;;;;;;2083566;28;20247;-78
2021/06/30 05:35:24;;;;;;;22.47;19.13;;;;;;;22.56;100.00;69761.06;2071776;28;20459;-79